Time;durP1;ratioP1;P1;durP2;ratioP2;P2;SDS_P1;SDS_P2;PMS_P1;PMS_P2;Temp;Humidity;BMP_temperature;BMP_pressure;BME280_temperature;BME280_humidity;BME280_pressure;Samples;Min_cycle;Max_cycle;Signal;HPM_P1;HPM_P2
2022/10/16 00:00:40;;;;;;;18.90;8.13;;;;;;;11.33;100.00;100922.97;5094955;28;20382;-48
2022/10/16 00:03:06;;;;;;;15.75;8.75;;;;;;;11.35;100.00;100926.47;5096158;28;20051;-49
2022/10/16 00:05:32;;;;;;;15.25;8.20;;;;;;;11.31;100.00;100920.34;5095681;28;20032;-48
2022/10/16 00:07:57;;;;;;;17.80;8.13;;;;;;;11.34;100.00;100920.44;5094917;28;20028;-47
2022/10/16 00:10:23;;;;;;;13.05;7.70;;;;;;;11.32;100.00;100904.03;5095770;28;20032;-46
2022/10/16 00:12:48;;;;;;;15.60;8.18;;;;;;;11.31;100.00;100912.63;5094046;28;20028;-49
2022/10/16 00:15:14;;;;;;;18.98;8.20;;;;;;;11.29;100.00;100915.97;5095787;28;20020;-49
2022/10/16 00:17:39;;;;;;;19.65;8.32;;;;;;;11.27;100.00;100921.09;5095284;28;20721;-48
2022/10/16 00:20:05;;;;;;;21.77;8.07;;;;;;;11.29;100.00;100915.97;5094855;28;20145;-50
2022/10/16 00:22:31;;;;;;;15.55;7.70;;;;;;;11.23;100.00;100918.38;5095163;28;20036;-47
2022/10/16 00:24:56;;;;;;;14.02;7.72;;;;;;;11.22;100.00;100914.06;5095470;28;20055;-48
2022/10/16 00:27:22;;;;;;;18.08;8.40;;;;;;;11.15;100.00;100916.44;5094587;28;20067;-50
2022/10/16 00:29:51;;;;;;;21.33;8.43;;;;;;;11.15;100.00;100919.03;5095119;28;20111;-48
2022/10/16 00:32:18;;;;;;;16.90;7.95;;;;;;;11.10;100.00;100914.59;5095251;28;20387;-49
2022/10/16 00:34:43;;;;;;;21.95;8.18;;;;;;;11.08;100.00;100919.72;5094264;28;20024;-49
2022/10/16 00:37:08;;;;;;;18.00;7.00;;;;;;;11.08;100.00;100917.13;5095256;28;20085;-49
2022/10/16 00:39:33;;;;;;;18.65;7.93;;;;;;;11.04;100.00;100912.72;5095041;28;20028;-50
2022/10/16 00:41:59;;;;;;;18.58;7.90;;;;;;;11.00;100.00;100921.16;5094120;28;20120;-49
2022/10/16 00:44:46;;;;;;;12.45;7.55;;;;;;;11.02;100.00;100922.09;5095321;28;20035;-49
2022/10/16 00:47:17;;;;;;;16.92;7.65;;;;;;;10.96;100.00;100917.66;5095140;28;20107;-49
2022/10/16 00:49:42;;;;;;;19.95;7.75;;;;;;;10.97;100.00;100923.66;5093918;28;20028;-48
2022/10/16 00:52:08;;;;;;;13.75;7.53;;;;;;;10.95;100.00;100921.06;5094823;28;20028;-46
2022/10/16 00:54:33;;;;;;;15.02;7.35;;;;;;;10.93;100.00;100924.41;5094852;28;20065;-48
2022/10/16 00:57:05;;;;;;;15.35;7.60;;;;;;;10.92;100.00;100925.25;5093979;28;20035;-49
2022/10/16 00:59:33;;;;;;;15.00;7.80;;;;;;;10.90;100.00;100927.78;5094739;28;20054;-44
2022/10/16 01:01:59;;;;;;;15.23;7.10;;;;;;;10.90;100.00;100924.31;5094049;28;20494;-48
2022/10/16 01:04:26;;;;;;;15.48;6.97;;;;;;;10.86;100.00;100920.78;5094715;28;20380;-47
2022/10/16 01:07:06;;;;;;;16.83;7.38;;;;;;;10.87;100.00;100922.50;5094362;28;20032;-49
2022/10/16 01:09:40;;;;;;;18.15;7.53;;;;;;;10.86;100.00;100916.50;5093767;28;20039;-49
2022/10/16 01:12:19;;;;;;;14.35;7.35;;;;;;;10.82;100.00;100914.66;5094764;28;20054;-48
2022/10/16 01:15:06;;;;;;;12.68;6.82;;;;;;;10.82;100.00;100921.50;5094384;28;20068;-49
2022/10/16 01:17:42;;;;;;;17.02;7.00;;;;;;;10.81;100.00;100922.34;5093548;28;20074;-47
2022/10/16 01:20:17;;;;;;;15.77;6.70;;;;;;;10.80;100.00;100913.72;5094530;28;20054;-48
2022/10/16 01:23:04;;;;;;;15.48;7.43;;;;;;;10.77;100.00;100923.97;5094205;28;20039;-50
2022/10/16 01:25:53;;;;;;;16.42;6.78;;;;;;;10.75;100.00;100922.16;5093401;28;20027;-49
2022/10/16 01:28:23;;;;;;;17.58;7.20;;;;;;;10.79;100.00;100935.19;5094379;28;20024;-47
2022/10/16 01:30:56;;;;;;;12.95;7.28;;;;;;;10.81;100.00;100933.53;5093325;28;20025;-49
2022/10/16 01:33:26;;;;;;;13.93;6.35;;;;;;;10.79;100.00;100929.16;5094375;28;20035;-50
2022/10/16 01:36:02;;;;;;;14.00;7.20;;;;;;;10.83;100.00;100929.31;5093911;28;20044;-47
2022/10/16 01:38:36;;;;;;;14.60;7.05;;;;;;;10.84;100.00;100912.97;5093553;28;20042;-48
2022/10/16 01:41:09;;;;;;;13.77;6.85;;;;;;;10.91;100.00;100923.50;5094022;28;20052;-49
2022/10/16 01:43:40;;;;;;;14.70;7.05;;;;;;;10.91;100.00;100915.75;5093840;28;20052;-47
2022/10/16 01:46:08;;;;;;;12.20;6.63;;;;;;;10.92;100.00;100922.66;5093219;28;20024;-49
2022/10/16 01:48:35;;;;;;;15.38;7.20;;;;;;;10.91;100.00;100928.66;5093582;28;20027;-48
2022/10/16 01:51:08;;;;;;;14.50;6.82;;;;;;;10.92;100.00;100922.66;5094032;28;20073;-47
2022/10/16 01:53:34;;;;;;;15.52;6.85;;;;;;;10.95;100.00;100910.75;5093622;28;20428;-50
2022/10/16 01:56:02;;;;;;;12.75;6.45;;;;;;;10.92;100.00;100912.34;5093707;28;20455;-48
2022/10/16 01:58:30;;;;;;;12.85;6.10;;;;;;;10.95;100.00;100912.44;5093045;28;20063;-47
2022/10/16 02:00:56;;;;;;;11.85;5.93;;;;;;;10.99;100.00;100916.88;5093625;28;20102;-49
2022/10/16 02:03:21;;;;;;;12.70;5.93;;;;;;;11.01;100.00;100916.09;5093627;28;20110;-49
2022/10/16 02:05:56;;;;;;;15.00;5.78;;;;;;;11.03;100.00;100923.84;5092709;28;20024;-49
2022/10/16 02:08:23;;;;;;;12.05;5.85;;;;;;;11.01;100.00;100930.66;5093589;28;20026;-50
2022/10/16 02:10:49;;;;;;;10.30;5.72;;;;;;;11.03;100.00;100929.00;5093292;28;20028;-47
2022/10/16 02:13:27;;;;;;;14.27;5.35;;;;;;;11.02;100.00;100937.56;5092639;28;20024;-48
2022/10/16 02:15:52;;;;;;;11.55;5.63;;;;;;;11.08;100.00;100935.19;5093162;28;20028;-50
2022/10/16 02:18:19;;;;;;;14.90;5.85;;;;;;;11.09;100.00;100931.78;5093650;28;20541;-48
2022/10/16 02:20:55;;;;;;;14.98;5.85;;;;;;;11.05;100.00;100937.66;5092442;28;20027;-49
2022/10/16 02:23:38;;;;;;;10.60;5.32;;;;;;;11.02;100.00;100932.41;5093557;28;20054;-48
2022/10/16 02:26:08;;;;;;;8.60;5.05;;;;;;;11.01;100.00;100925.50;5093298;28;20031;-49
2022/10/16 02:28:42;;;;;;;14.18;5.03;;;;;;;10.97;100.00;100934.00;5092455;28;20039;-46
2022/10/16 02:31:13;;;;;;;10.98;5.38;;;;;;;10.94;100.00;100921.88;5093367;28;20032;-48
2022/10/16 02:33:42;;;;;;;12.85;5.57;;;;;;;10.92;100.00;100918.38;5092242;28;20169;-48
2022/10/16 02:36:08;;;;;;;15.75;5.60;;;;;;;10.90;100.00;100922.63;5093068;28;20034;-48
2022/10/16 02:38:34;;;;;;;9.75;5.20;;;;;;;10.83;100.00;100926.72;5092807;28;20095;-48
2022/10/16 02:40:59;;;;;;;9.95;5.82;;;;;;;10.85;100.00;100940.53;5092012;28;20063;-49
2022/10/16 02:43:26;;;;;;;12.10;5.20;;;;;;;10.79;100.00;100947.22;5092915;28;20020;-48
2022/10/16 02:45:51;;;;;;;12.65;5.22;;;;;;;10.73;100.00;100944.44;5092960;28;20035;-49
2022/10/16 02:48:17;;;;;;;10.43;5.57;;;;;;;10.75;100.00;100937.63;5092306;28;20028;-49
2022/10/16 02:50:42;;;;;;;12.18;5.47;;;;;;;10.71;100.00;100941.81;5092800;28;20036;-48
2022/10/16 02:53:07;;;;;;;15.55;5.60;;;;;;;10.66;100.00;100927.91;5092863;28;20074;-48
2022/10/16 02:55:32;;;;;;;10.35;5.38;;;;;;;10.64;100.00;100925.28;5092063;28;20012;-48
2022/10/16 02:57:58;;;;;;;10.38;5.15;;;;;;;10.65;100.00;100918.44;5093069;28;20384;-48
2022/10/16 03:00:23;;;;;;;15.25;5.78;;;;;;;10.67;100.00;100909.06;5092912;28;20020;-49
2022/10/16 03:02:49;;;;;;;13.38;5.55;;;;;;;10.60;100.00;100920.00;5091910;28;20016;-49
2022/10/16 03:05:15;;;;;;;9.02;4.72;;;;;;;10.60;100.00;100915.72;5093023;28;20032;-48
2022/10/16 03:07:40;;;;;;;10.45;5.38;;;;;;;10.58;100.00;100926.81;5092530;28;20020;-48
2022/10/16 03:10:06;;;;;;;10.43;5.18;;;;;;;10.59;100.00;100934.59;5092314;28;20089;-48
2022/10/16 03:12:32;;;;;;;12.13;4.72;;;;;;;10.59;100.00;100925.97;5092702;28;20028;-49
2022/10/16 03:14:57;;;;;;;10.57;5.03;;;;;;;10.52;100.00;100936.09;5092734;28;20031;-49
2022/10/16 03:17:23;;;;;;;11.10;5.30;;;;;;;10.57;100.00;100937.94;5092111;28;20086;-49
2022/10/16 03:19:49;;;;;;;10.93;5.05;;;;;;;10.58;100.00;100932.84;5092515;28;20024;-48
2022/10/16 03:22:14;;;;;;;9.77;5.50;;;;;;;10.59;100.00;100941.44;5092572;28;20031;-49
2022/10/16 03:24:40;;;;;;;12.20;5.15;;;;;;;10.60;100.00;100950.91;5091830;28;20024;-48
2022/10/16 03:27:05;;;;;;;13.35;5.72;;;;;;;10.62;100.00;100951.84;5092869;28;20485;-46
2022/10/16 03:29:32;;;;;;;14.55;5.50;;;;;;;10.63;100.00;100953.59;5092458;28;20024;-49
2022/10/16 03:31:57;;;;;;;11.10;5.10;;;;;;;10.64;100.00;100960.47;5091834;28;20052;-49
2022/10/16 03:34:22;;;;;;;9.30;5.05;;;;;;;10.64;100.00;100970.78;5092716;28;20048;-50
2022/10/16 03:36:47;;;;;;;9.93;4.35;;;;;;;10.63;100.00;100969.06;5091545;28;20395;-48
2022/10/16 03:39:13;;;;;;;11.05;4.95;;;;;;;10.61;100.00;100965.56;5092743;28;20067;-49
2022/10/16 03:41:38;;;;;;;10.35;4.95;;;;;;;10.62;100.00;100963.03;5092249;28;20048;-48
2022/10/16 03:44:03;;;;;;;9.00;4.47;;;;;;;10.66;100.00;100964.00;5091918;28;20052;-48
2022/10/16 03:46:29;;;;;;;10.80;5.07;;;;;;;10.68;100.00;100962.34;5092528;28;20020;-48
2022/10/16 03:48:54;;;;;;;11.02;4.40;;;;;;;10.68;100.00;100962.34;5094368;28;20130;-49
2022/10/16 03:51:20;;;;;;;8.52;4.50;;;;;;;10.70;100.00;100960.69;5095194;28;20379;-49
2022/10/16 03:53:45;;;;;;;9.95;4.75;;;;;;;10.69;100.00;100962.41;5096031;28;20441;-48
2022/10/16 03:56:10;;;;;;;11.82;4.45;;;;;;;10.68;100.00;100968.38;5095990;28;20020;-49
2022/10/16 03:58:35;;;;;;;10.15;4.55;;;;;;;10.66;100.00;100971.72;5095074;28;20494;-48
2022/10/16 04:01:01;;;;;;;9.90;4.38;;;;;;;10.69;100.00;100974.41;5095815;28;20028;-49
2022/10/16 04:03:26;;;;;;;9.82;4.78;;;;;;;10.71;100.00;100975.31;5095986;28;20472;-49
2022/10/16 04:05:51;;;;;;;11.52;4.72;;;;;;;10.74;100.00;100983.16;5094789;28;20062;-48
2022/10/16 04:08:17;;;;;;;11.32;5.10;;;;;;;10.75;100.00;100974.59;5095940;28;20103;-47
2022/10/16 04:10:43;;;;;;;9.52;4.72;;;;;;;10.74;100.00;100975.41;5095497;28;20031;-51
2022/10/16 04:13:09;;;;;;;10.25;4.63;;;;;;;10.76;100.00;100976.34;5094945;28;20024;-48
2022/10/16 04:15:34;;;;;;;10.00;4.25;;;;;;;10.79;100.00;100981.59;5095511;28;20024;-49
2022/10/16 04:17:59;;;;;;;12.38;4.97;;;;;;;10.78;100.00;100971.22;5095611;28;20034;-48
2022/10/16 04:20:25;;;;;;;11.85;4.70;;;;;;;10.82;100.00;100981.69;5094573;28;20020;-48
2022/10/16 04:22:50;;;;;;;12.07;5.35;;;;;;;10.81;100.00;100979.94;5095140;28;20019;-49
2022/10/16 04:25:15;;;;;;;11.05;5.28;;;;;;;10.82;100.00;100981.69;5095715;28;20056;-49
2022/10/16 04:27:41;;;;;;;9.63;4.78;;;;;;;10.83;100.00;100987.72;5094464;28;20028;-48
2022/10/16 04:30:06;;;;;;;9.18;5.47;;;;;;;10.82;100.00;100986.84;5095543;28;20031;-47
2022/10/16 04:32:32;;;;;;;13.98;5.78;;;;;;;10.81;100.00;100977.38;5095040;28;20480;-49
2022/10/16 04:34:57;;;;;;;11.38;5.57;;;;;;;10.80;100.00;100982.47;5094421;28;20043;-49
2022/10/16 04:37:26;;;;;;;10.57;4.90;;;;;;;10.83;100.00;100985.13;5095121;28;20073;-48
2022/10/16 04:39:53;;;;;;;12.35;5.53;;;;;;;10.82;100.00;100994.59;5095036;28;20030;-48
2022/10/16 04:42:18;;;;;;;13.07;5.57;;;;;;;10.81;100.00;100994.53;5094518;28;20056;-48
2022/10/16 04:44:43;;;;;;;11.32;5.40;;;;;;;10.83;100.00;100995.44;5094976;28;20398;-49
2022/10/16 04:47:09;;;;;;;10.13;5.35;;;;;;;10.81;100.00;100998.00;5094401;28;20032;-51
2022/10/16 04:49:34;;;;;;;10.15;5.22;;;;;;;10.80;100.00;101008.25;5094741;28;20046;-51
2022/10/16 04:51:59;;;;;;;11.50;5.55;;;;;;;10.80;100.00;101014.28;5094973;28;20024;-51
2022/10/16 04:54:25;;;;;;;11.50;5.78;;;;;;;10.76;100.00;101012.44;5094059;28;20027;-51
2022/10/16 04:56:51;;;;;;;15.52;5.90;;;;;;;10.77;100.00;101013.31;5094784;28;20035;-48
2022/10/16 04:59:18;;;;;;;11.07;5.43;;;;;;;10.75;100.00;101010.69;5094714;28;20379;-49
2022/10/16 05:01:44;;;;;;;11.18;5.38;;;;;;;10.76;100.00;101016.72;5093699;28;20032;-48
2022/10/16 05:04:10;;;;;;;12.98;5.60;;;;;;;10.75;100.00;101015.84;5094762;28;20024;-48
2022/10/16 05:06:36;;;;;;;10.07;5.28;;;;;;;10.73;100.00;101027.81;5094343;28;20032;-49
2022/10/16 05:09:02;;;;;;;12.20;5.45;;;;;;;10.68;100.00;101027.66;5093930;28;20154;-47
2022/10/16 05:11:27;;;;;;;11.30;5.60;;;;;;;10.69;100.00;101028.53;5094468;28;20066;-48
2022/10/16 05:13:53;;;;;;;12.60;5.80;;;;;;;10.73;100.00;101038.13;5094376;28;20028;-48
2022/10/16 05:16:18;;;;;;;11.00;5.18;;;;;;;10.70;100.00;101040.59;5093746;28;20028;-48
2022/10/16 05:18:43;;;;;;;13.95;5.90;;;;;;;10.68;100.00;101039.69;5094281;28;20020;-50
2022/10/16 05:21:09;;;;;;;8.95;5.53;;;;;;;10.67;100.00;101032.78;5094295;28;20035;-51
2022/10/16 05:23:34;;;;;;;14.02;5.78;;;;;;;10.68;100.00;101034.53;5093502;28;20056;-51
2022/10/16 05:26:00;;;;;;;13.70;6.18;;;;;;;10.67;100.00;101032.78;5094222;28;20105;-48
2022/10/16 05:28:26;;;;;;;11.25;5.50;;;;;;;10.65;100.00;101044.72;5094317;28;20475;-48
2022/10/16 05:30:52;;;;;;;13.93;5.85;;;;;;;10.64;100.00;101043.84;5093161;28;20023;-48
2022/10/16 05:33:19;;;;;;;15.77;5.20;;;;;;;10.58;100.00;101051.38;5094140;28;20028;-49
2022/10/16 05:35:44;;;;;;;16.50;6.20;;;;;;;10.62;100.00;101060.09;5093763;28;20487;-47
2022/10/16 05:38:10;;;;;;;11.65;5.85;;;;;;;10.62;100.00;101065.25;5093466;28;20020;-48
2022/10/16 05:40:35;;;;;;;10.40;4.40;;;;;;;10.62;100.00;101067.84;5093764;28;20040;-49
2022/10/16 05:43:00;;;;;;;12.63;5.93;;;;;;;10.56;100.00;101071.09;5094011;28;20135;-48
2022/10/16 05:45:26;;;;;;;12.73;5.43;;;;;;;10.55;100.00;101084.81;5093211;28;20032;-50
2022/10/16 05:47:51;;;;;;;11.68;5.72;;;;;;;10.57;100.00;101084.84;5093680;28;20016;-50
2022/10/16 05:50:16;;;;;;;13.65;5.85;;;;;;;10.54;100.00;101088.19;5092921;28;20020;-48
2022/10/16 05:52:41;;;;;;;16.58;5.50;;;;;;;10.47;100.00;101093.97;5093726;28;20084;-51
2022/10/16 05:55:07;;;;;;;13.75;6.22;;;;;;;10.50;100.00;101097.53;5093864;28;20020;-50
2022/10/16 05:57:32;;;;;;;13.32;5.53;;;;;;;10.46;100.00;101110.28;5092561;28;20047;-52
2022/10/16 05:59:58;;;;;;;11.30;5.18;;;;;;;10.42;100.00;101114.44;5093622;28;20032;-50
2022/10/16 06:02:23;;;;;;;11.48;5.75;;;;;;;10.39;100.00;101119.47;5093445;28;20024;-50
2022/10/16 06:04:48;;;;;;;10.35;5.28;;;;;;;10.34;100.00;101120.97;5092483;28;20028;-50
2022/10/16 06:07:13;;;;;;;19.30;6.22;;;;;;;10.35;100.00;101122.72;5093445;28;20040;-51
2022/10/16 06:09:39;;;;;;;15.35;6.25;;;;;;;10.34;100.00;101126.13;5093469;28;20383;-51
2022/10/16 06:12:04;;;;;;;17.02;5.53;;;;;;;10.35;100.00;101128.81;5092394;28;20023;-50
2022/10/16 06:14:29;;;;;;;13.77;5.68;;;;;;;10.37;100.00;101136.59;5093449;28;20028;-50
2022/10/16 06:16:55;;;;;;;15.32;5.90;;;;;;;10.34;100.00;101136.44;5093076;28;20032;-49
2022/10/16 06:19:20;;;;;;;12.25;6.35;;;;;;;10.32;100.00;101140.66;5092526;28;20475;-50
2022/10/16 06:21:45;;;;;;;15.77;5.93;;;;;;;10.36;100.00;101139.97;5093190;28;20024;-48
2022/10/16 06:24:10;;;;;;;14.18;6.00;;;;;;;10.33;100.00;101139.84;5093206;28;20073;-49
2022/10/16 06:26:37;;;;;;;18.25;6.93;;;;;;;10.27;100.00;101147.34;5092409;28;20024;-48
2022/10/16 06:29:02;;;;;;;18.33;6.35;;;;;;;10.35;100.00;101151.06;5093324;28;20020;-48
2022/10/16 06:31:30;;;;;;;17.10;6.40;;;;;;;10.36;100.00;101153.72;5093276;28;20103;-49
2022/10/16 06:33:57;;;;;;;16.67;6.70;;;;;;;10.35;100.00;101153.66;5092259;28;20482;-49
2022/10/16 06:36:23;;;;;;;13.95;6.70;;;;;;;10.37;100.00;101159.78;5093282;28;20110;-49
2022/10/16 06:38:49;;;;;;;14.27;7.10;;;;;;;10.36;100.00;101166.59;5092982;28;20020;-49
2022/10/16 06:41:17;;;;;;;11.80;6.15;;;;;;;10.35;100.00;101174.25;5092160;28;20503;-48
2022/10/16 06:43:46;;;;;;;18.42;6.68;;;;;;;10.42;100.00;101171.13;5092863;28;20069;-49
2022/10/16 06:46:14;;;;;;;13.05;5.68;;;;;;;10.45;100.00;101170.34;5093072;28;20051;-49
2022/10/16 06:48:39;;;;;;;;;;;;;;;10.47;100.00;101174.72;5092386;28;20422;-47
2022/10/16 06:51:16;;;;;;;15.73;6.43;;;;;;;10.49;100.00;101188.53;5092909;28;20472;-49
2022/10/16 06:53:43;;;;;;;19.77;6.75;;;;;;;10.54;100.00;101186.13;5091960;28;20375;-49
2022/10/16 06:56:15;;;;;;;15.07;6.00;;;;;;;10.60;100.00;101191.50;5093027;28;20024;-49
2022/10/16 06:58:41;;;;;;;17.00;6.28;;;;;;;10.66;100.00;101193.41;5092686;28;20028;-50
2022/10/16 07:01:07;;;;;;;17.63;6.60;;;;;;;10.71;100.00;101189.28;5091951;28;20074;-49
2022/10/16 07:03:33;;;;;;;13.60;6.35;;;;;;;10.81;100.00;101191.34;5092804;28;20031;-50
2022/10/16 07:06:05;;;;;;;11.48;5.90;;;;;;;10.92;100.00;101203.75;5092953;28;20024;-48
2022/10/16 07:08:34;;;;;;;13.20;5.80;;;;;;;11.03;100.00;101207.56;5091851;28;20024;-46
2022/10/16 07:11:06;;;;;;;17.42;5.60;;;;;;;11.14;100.00;101211.38;5092864;28;20020;-49
2022/10/16 07:13:38;;;;;;;11.07;5.53;;;;;;;11.25;100.00;101221.19;5092451;28;20043;-48
2022/10/16 07:16:09;;;;;;;15.00;5.50;;;;;;;11.35;100.00;101223.22;5092043;28;20032;-49
2022/10/16 07:18:34;;;;;;;12.50;5.43;;;;;;;11.45;100.00;101221.81;5092568;28;20027;-49
2022/10/16 07:21:25;;;;;;;12.38;4.97;;;;;;;11.52;100.00;101224.63;5092734;28;20060;-47
2022/10/16 07:23:51;;;;;;;14.90;5.43;;;;;;;11.63;100.00;101230.16;5082340;28;20041;-49
2022/10/16 07:26:16;;;;;;;14.95;5.68;;;;;;;11.71;100.00;101240.72;5096467;28;20050;-50
2022/10/16 07:28:43;;;;;;;9.48;4.90;;;;;;;11.79;100.00;101241.81;5096109;28;20028;-48
2022/10/16 07:31:11;;;;;;;11.88;4.63;;;;;;;11.85;100.00;101248.88;5096609;28;20044;-45
2022/10/16 07:33:38;;;;;;;11.45;4.53;;;;;;;11.95;100.00;101256.09;5096354;28;20027;-47
2022/10/16 07:36:03;;;;;;;17.17;5.23;;;;;;;12.04;100.00;101260.69;5095615;28;20055;-49
2022/10/16 07:38:29;;;;;;;12.07;4.85;;;;;;;12.15;100.00;101261.88;5096192;28;20298;-49
2022/10/16 07:40:59;;;;;;;12.20;4.97;;;;;;;12.26;100.00;101262.19;5095870;28;20052;-48
2022/10/16 07:43:25;;;;;;;10.07;4.68;;;;;;;12.38;100.00;101261.66;5095623;28;20020;-48
2022/10/16 07:45:51;;;;;;;11.10;4.47;;;;;;;12.50;100.00;101267.19;5095911;28;20383;-48
2022/10/16 07:48:17;;;;;;;9.55;4.35;;;;;;;12.64;100.00;101269.28;5096202;28;20065;-49
2022/10/16 07:50:43;;;;;;;11.45;5.28;;;;;;;12.79;100.00;101285.22;5094956;28;20475;-48
2022/10/16 07:53:10;;;;;;;11.77;4.60;;;;;;;12.94;100.00;101277.03;5095985;28;20043;-50
2022/10/16 07:55:35;;;;;;;10.68;4.10;;;;;;;13.07;100.00;101291.16;5095924;28;20058;-49
2022/10/16 07:58:00;;;;;;;9.98;4.35;;;;;;;13.24;100.00;101288.16;5095305;28;20102;-48
2022/10/16 08:00:26;;;;;;;9.18;4.13;;;;;;;13.25;100.00;101293.34;5095949;28;20099;-49
2022/10/16 08:02:51;;;;;;;15.10;4.45;;;;;;;13.37;100.00;101289.38;5095698;28;20383;-50
2022/10/16 08:05:16;;;;;;;11.15;4.05;;;;;;;13.48;100.00;101299.16;5095043;28;20038;-48
2022/10/16 08:07:42;;;;;;;10.30;4.45;;;;;;;13.58;100.00;101302.84;5095420;28;20380;-49
2022/10/16 08:10:16;;;;;;;11.75;3.97;;;;;;;13.55;100.00;101309.66;5095988;28;20107;-48
2022/10/16 08:12:41;;;;;;;9.23;3.78;;;;;;;13.60;100.00;101303.75;5094805;28;20021;-48
2022/10/16 08:15:07;;;;;;;8.05;3.95;;;;;;;13.61;100.00;101312.41;5095655;28;20066;-48
2022/10/16 08:17:32;;;;;;;8.18;3.50;;;;;;;13.70;100.00;101324.69;5095580;28;20063;-49
2022/10/16 08:19:57;;;;;;;8.73;3.72;;;;;;;13.77;100.00;101332.63;5094719;28;20012;-49
2022/10/16 08:22:23;;;;;;;11.10;3.95;;;;;;;13.91;100.00;101337.31;5095381;28;20455;-50
2022/10/16 08:24:48;;;;;;;14.68;4.32;;;;;;;13.91;100.00;101345.94;5095320;28;20039;-48
2022/10/16 08:27:13;;;;;;;9.95;3.92;;;;;;;14.01;99.43;101341.84;5094743;28;20024;-50
2022/10/16 08:29:38;;;;;;;12.90;4.32;;;;;;;14.13;98.98;101339.53;5095158;28;20036;-49
2022/10/16 08:32:04;;;;;;;11.70;4.47;;;;;;;14.13;98.48;101339.53;5094638;28;20495;-48
2022/10/16 08:34:29;;;;;;;11.27;3.70;;;;;;;14.21;96.49;101344.88;5095018;28;20028;-49
2022/10/16 08:36:55;;;;;;;8.80;3.72;;;;;;;14.28;97.52;101353.69;5095103;28;20169;-49
2022/10/16 08:39:20;;;;;;;12.05;3.92;;;;;;;14.35;96.28;101349.53;5094722;28;20032;-50
2022/10/16 08:41:45;;;;;;;10.90;3.88;;;;;;;14.55;96.59;101349.94;5094735;28;20462;-49
2022/10/16 08:44:38;;;;;;;13.13;4.00;;;;;;;14.64;96.29;101350.16;5095131;28;20461;-49
2022/10/16 08:47:22;;;;;;;15.80;4.05;;;;;;;14.77;95.17;101361.66;5094221;28;20479;-47
2022/10/16 08:49:55;;;;;;;9.18;3.72;;;;;;;14.87;93.87;101362.75;5094998;28;20021;-49
2022/10/16 08:52:20;;;;;;;16.15;3.85;;;;;;;14.96;92.40;101360.31;5095122;28;20028;-48
2022/10/16 08:54:51;;;;;;;10.52;3.53;;;;;;;15.06;91.53;101364.84;5093919;28;20051;-49
2022/10/16 08:57:21;;;;;;;11.15;2.90;;;;;;;15.13;89.56;101371.94;5094902;28;20091;-48
2022/10/16 08:59:47;;;;;;;11.77;3.05;;;;;;;15.26;90.83;101372.16;5094313;28;20026;-49
2022/10/16 09:02:26;;;;;;;10.45;3.72;;;;;;;15.45;90.38;101369.06;5093823;28;20115;-50
2022/10/16 09:05:04;;;;;;;10.50;3.00;;;;;;;15.55;88.54;101371.81;5094576;28;20066;-49
2022/10/16 09:07:41;;;;;;;9.57;3.53;;;;;;;15.58;87.02;101377.94;5094020;28;20040;-48
2022/10/16 09:10:21;;;;;;;9.10;3.10;;;;;;;15.69;88.30;101378.13;5094622;28;20048;-48
2022/10/16 09:12:56;;;;;;;14.93;3.33;;;;;;;16.20;87.21;101381.53;5094540;28;20028;-49
2022/10/16 09:15:25;;;;;;;9.10;2.47;;;;;;;16.17;85.15;101383.25;5093750;28;20550;-50
2022/10/16 09:18:12;;;;;;;13.15;3.35;;;;;;;16.51;85.88;101394.13;5094197;28;20107;-50
2022/10/16 09:20:42;;;;;;;12.73;2.97;;;;;;;16.93;80.58;101391.22;5094028;28;20036;-50
2022/10/16 09:23:12;;;;;;;14.82;3.22;;;;;;;16.99;78.44;101400.88;5093509;28;20498;-49
2022/10/16 09:25:39;;;;;;;10.13;2.85;;;;;;;17.12;78.86;101404.50;5094123;28;20090;-50
2022/10/16 09:28:05;;;;;;;9.63;2.50;;;;;;;17.56;77.79;101411.88;5094413;28;20106;-50
2022/10/16 09:30:30;;;;;;;11.75;3.00;;;;;;;17.38;75.30;101398.69;5093403;28;20112;-46
2022/10/16 09:32:57;;;;;;;12.57;2.88;;;;;;;17.27;74.94;101408.97;5094091;28;20463;-49
2022/10/16 09:35:31;;;;;;;12.75;3.08;;;;;;;17.37;74.02;101403.00;5093239;28;20070;-49
2022/10/16 09:37:56;;;;;;;14.20;3.30;;;;;;;17.49;73.69;101410.06;5094248;28;20119;-50
2022/10/16 09:40:35;;;;;;;12.57;2.55;;;;;;;17.51;76.57;101420.53;5093914;28;20503;-46
2022/10/16 09:43:39;;;;;;;13.93;3.15;;;;;;;17.57;76.69;101420.56;5093051;28;20479;-49
2022/10/16 09:46:26;;;;;;;12.65;3.00;;;;;;;17.56;76.72;101413.63;5093375;28;20032;-52
2022/10/16 09:48:55;;;;;;;14.65;3.60;;;;;;;17.38;73.13;101415.19;5093813;28;20095;-51
2022/10/16 09:51:27;;;;;;;13.40;2.88;;;;;;;16.91;74.67;101412.91;5093121;28;20028;-50
2022/10/16 09:54:01;;;;;;;21.92;3.70;;;;;;;17.55;75.34;101419.69;5093478;28;20031;-49
2022/10/16 09:56:32;;;;;;;14.52;3.63;;;;;;;17.81;73.62;101419.06;5093086;28;20032;-47
2022/10/16 09:59:00;;;;;;;18.85;3.83;;;;;;;17.77;71.50;101424.25;5093826;28;20092;-50
2022/10/16 10:01:39;;;;;;;16.40;3.35;;;;;;;17.77;72.85;101429.44;5093591;28;20028;-50
2022/10/16 10:04:06;;;;;;;19.42;3.63;;;;;;;18.07;71.52;101427.13;5092807;28;20072;-49
2022/10/16 10:06:37;;;;;;;15.60;3.73;;;;;;;18.46;69.62;101420.44;5093211;28;20020;-49
2022/10/16 10:09:06;;;;;;;16.33;3.00;;;;;;;18.73;70.77;101430.19;5093645;28;20024;-49
2022/10/16 10:11:47;;;;;;;17.90;3.10;;;;;;;19.33;69.75;101421.72;5092681;28;20099;-49
2022/10/16 10:14:49;;;;;;;17.40;3.13;;;;;;;19.26;67.95;101425.16;5093408;28;20102;-49
2022/10/16 10:17:26;;;;;;;10.73;3.05;;;;;;;19.29;65.96;101430.44;5040257;28;20039;-50
2022/10/16 10:19:55;;;;;;;21.33;3.90;;;;;;;19.42;65.28;101432.19;5092598;28;20024;-50
2022/10/16 10:22:29;;;;;;;17.80;3.63;;;;;;;19.63;64.33;101435.72;5093245;28;20152;-49
2022/10/16 10:25:07;;;;;;;22.85;3.95;;;;;;;19.45;63.46;101433.94;5092274;28;20118;-50
2022/10/16 10:27:58;;;;;;;17.35;4.13;;;;;;;19.57;64.03;101443.53;5092964;28;20035;-50
2022/10/16 10:30:51;;;;;;;19.90;3.38;;;;;;;19.86;66.85;101442.75;5092735;28;20043;-50
2022/10/16 10:33:35;;;;;;;17.75;3.22;;;;;;;20.20;65.15;101443.59;5092427;28;20111;-50
2022/10/16 10:36:22;;;;;;;16.35;3.88;;;;;;;20.40;64.47;101453.19;5093283;28;20028;-50
2022/10/16 10:39:01;;;;;;;22.63;4.20;;;;;;;20.75;61.21;101451.38;5092106;28;20486;-50
2022/10/16 10:41:29;;;;;;;19.08;3.60;;;;;;;20.72;57.10;101450.53;5092932;28;20071;-49
2022/10/16 10:44:27;;;;;;;18.20;3.42;;;;;;;20.82;59.71;101453.13;5092748;28;20370;-48
2022/10/16 10:46:57;;;;;;;23.40;3.92;;;;;;;20.32;58.36;101458.44;5092140;28;20055;-48
2022/10/16 10:49:33;;;;;;;23.10;3.70;;;;;;;20.56;58.75;101451.41;5093093;28;20111;-49
2022/10/16 10:52:12;;;;;;;22.52;3.92;;;;;;;20.54;56.34;101447.91;5093055;28;20081;-50
2022/10/16 10:54:53;;;;;;;14.98;3.20;;;;;;;20.67;57.31;101456.63;5092003;28;20028;-50
2022/10/16 10:57:28;;;;;;;18.17;3.15;;;;;;;20.51;57.74;101448.78;5094395;28;20128;-49
2022/10/16 11:00:02;;;;;;;24.05;3.60;;;;;;;20.75;58.36;101454.91;5096193;28;20099;-50
2022/10/16 11:03:08;;;;;;;23.20;3.25;;;;;;;21.30;59.68;101456.38;5096948;28;20031;-50
2022/10/16 11:05:52;;;;;;;18.50;4.45;;;;;;;21.48;56.85;101467.66;5068070;28;20119;-50
2022/10/16 11:08:50;;;;;;;22.73;3.78;;;;;;;21.98;54.11;101461.22;5096460;28;20055;-49
2022/10/16 11:11:24;;;;;;;25.27;3.97;;;;;;;21.96;55.48;101459.50;5061973;28;20039;-50
2022/10/16 11:14:03;;;;;;;17.52;3.20;;;;;;;22.40;52.90;101468.78;5095859;28;20024;-49
2022/10/16 11:16:45;;;;;;;19.40;3.53;;;;;;;22.87;49.42;101468.28;5096769;28;20063;-49
2022/10/16 11:19:41;;;;;;;16.20;3.25;;;;;;;22.87;52.90;101473.56;5096777;28;20086;-49
2022/10/16 11:22:12;;;;;;;17.83;3.38;;;;;;;22.82;49.67;101465.72;5095951;28;20111;-50